Brunehault, Belgium
Current Conditions -  °F | °C
As of 4:20 PM on Thursday 30 Oct 2014 (Local Time) from EBCI Reporting Station
Clear Clear  
Wind Chill: 63°   Ceiling: Unl
Heat Index: 63°   Visibility: 6mi
Dew Point: 55°   Wind: 8mph
Humidity: 77%   Direction: 180°S
Pressure: 30.18"   Gusts: NA
Location:  50.51°N, 4.43°E
Report Text: EBCI 301520Z 18007KT 150V210 CAVOK 17/13 Q1022 NOSIG
Loading
Personal Weather Stations






























Interactive Weather Map
Tropical Storm Tracking
New forecast layout! Learn more

10-Day Weather Forecast

Advertisements
Track Severe Weather on mobile